createdAt,value
2023-01-12T00:00:07.274Z,11.52
2023-01-12T00:02:40.498Z,15.98
2023-01-12T00:05:09.375Z,14.15
2023-01-12T00:07:37.629Z,12.43
2023-01-12T00:10:08.479Z,14.00
2023-01-12T00:12:38.035Z,16.92
2023-01-12T00:15:07.517Z,14.85
2023-01-12T00:17:35.751Z,11.85
2023-01-12T00:20:06.328Z,13.50
2023-01-12T00:22:34.552Z,10.40
2023-01-12T00:25:02.788Z,11.10
2023-01-12T00:27:31.074Z,13.48
2023-01-12T00:30:00.824Z,10.88
2023-01-12T00:32:29.450Z,10.05
2023-01-12T00:34:57.738Z,13.27
2023-01-12T00:37:26.956Z,12.05
2023-01-12T00:40:02.553Z,12.25
2023-01-12T00:42:48.754Z,10.75
2023-01-12T00:45:24.623Z,12.32
2023-01-12T00:47:54.431Z,14.57
2023-01-12T00:50:22.860Z,9.77
2023-01-12T00:52:51.148Z,11.68
2023-01-12T00:55:19.372Z,11.05
2023-01-12T00:57:48.102Z,15.45
2023-01-12T01:00:18.807Z,12.70
2023-01-12T01:02:49.336Z,12.07
2023-01-12T01:05:17.880Z,13.43
2023-01-12T01:07:47.358Z,10.70
2023-01-12T01:10:16.470Z,12.57
2023-01-12T01:12:44.727Z,14.80
2023-01-12T01:15:13.134Z,8.50
2023-01-12T01:17:42.808Z,9.52
2023-01-12T01:20:12.559Z,16.08
2023-01-12T01:22:40.772Z,12.60
2023-01-12T01:25:09.787Z,13.52
2023-01-12T01:27:38.023Z,15.45
2023-01-12T01:30:07.361Z,14.57
2023-01-12T01:32:35.560Z,8.60
2023-01-12T01:35:05.569Z,10.38
2023-01-12T01:37:33.780Z,11.23
2023-01-12T01:40:04.627Z,11.00
2023-01-12T01:42:32.989Z,12.45
2023-01-12T01:45:03.058Z,14.15
2023-01-12T01:47:37.541Z,10.52
2023-01-12T01:50:15.767Z,11.88
2023-01-12T01:52:47.025Z,11.38
2023-01-12T01:55:23.315Z,11.23
2023-01-12T01:57:56.973Z,8.48
2023-01-12T02:00:26.206Z,11.65
2023-01-12T02:02:55.826Z,8.73
2023-01-12T02:05:28.534Z,12.50
2023-01-12T02:08:06.531Z,11.40
2023-01-12T02:10:35.157Z,11.90
2023-01-12T02:13:20.929Z,12.15
2023-01-12T02:16:16.137Z,10.15
2023-01-12T02:18:50.755Z,9.90
2023-01-12T02:21:52.070Z,10.90
2023-01-12T02:24:47.795Z,8.48
2023-01-12T02:27:39.663Z,10.57
2023-01-12T02:30:46.356Z,10.40
2023-01-12T02:33:28.995Z,11.52
2023-01-12T02:36:07.592Z,9.55
2023-01-12T02:38:41.032Z,8.10
2023-01-12T02:41:18.978Z,13.35
2023-01-12T02:43:46.601Z,11.88
2023-01-12T02:46:20.875Z,8.32
2023-01-12T02:48:56.709Z,10.68
2023-01-12T02:51:32.170Z,6.70
2023-01-12T02:54:03.873Z,8.50
2023-01-12T02:56:35.343Z,9.02
2023-01-12T02:59:08.981Z,10.48
2023-01-12T03:01:38.707Z,6.07
2023-01-12T03:04:14.028Z,7.85
2023-01-12T03:06:46.673Z,9.85
2023-01-12T03:09:17.478Z,9.90
2023-01-12T03:11:50.174Z,8.25
2023-01-12T03:14:19.146Z,7.40
2023-01-12T03:16:47.381Z,9.63
2023-01-12T03:19:21.720Z,9.50
2023-01-12T03:21:56.104Z,12.10
2023-01-12T03:24:28.622Z,8.13
2023-01-12T03:27:00.352Z,9.93
2023-01-12T03:29:34.075Z,8.10
2023-01-12T03:32:02.694Z,7.55
2023-01-12T03:34:33.261Z,9.48
2023-01-12T03:37:08.940Z,7.72
2023-01-12T03:39:43.427Z,8.10
2023-01-12T03:42:17.435Z,6.65
2023-01-12T03:44:55.193Z,8.68
2023-01-12T03:47:27.921Z,6.75
2023-01-12T03:50:06.787Z,10.20
2023-01-12T03:52:37.453Z,8.77
2023-01-12T03:55:09.705Z,11.45
2023-01-12T03:57:39.301Z,9.55
2023-01-12T04:00:11.150Z,8.75
2023-01-12T04:02:44.465Z,8.15
2023-01-12T04:05:15.095Z,9.75
2023-01-12T04:07:43.453Z,7.25
2023-01-12T04:10:12.358Z,8.73
2023-01-12T04:12:40.528Z,5.93
2023-01-12T04:15:09.567Z,11.05
2023-01-12T04:17:37.736Z,6.67
2023-01-12T04:20:06.794Z,13.00
2023-01-12T04:22:44.197Z,10.13
2023-01-12T04:25:13.858Z,6.60
2023-01-12T04:27:48.172Z,5.60
2023-01-12T04:30:17.486Z,9.65
2023-01-12T04:32:46.402Z,8.40
2023-01-12T04:35:14.832Z,6.27
2023-01-12T04:37:45.103Z,10.50
2023-01-12T04:40:15.029Z,4.93
2023-01-12T04:43:02.023Z,7.70
2023-01-12T04:45:32.138Z,4.85
2023-01-12T04:48:03.987Z,7.73
2023-01-12T04:50:32.382Z,9.43
2023-01-12T04:53:03.433Z,6.20
2023-01-12T04:55:31.681Z,9.17
2023-01-12T04:57:59.943Z,7.87
2023-01-12T05:00:28.231Z,10.23
2023-01-12T05:02:59.295Z,9.00
2023-01-12T05:05:27.969Z,10.07
2023-01-12T05:08:14.667Z,10.40
2023-01-12T05:10:44.350Z,8.70
2023-01-12T05:13:12.526Z,8.07
2023-01-12T05:15:43.203Z,9.40
2023-01-12T05:18:11.421Z,9.17
2023-01-12T05:20:39.648Z,10.80
2023-01-12T05:23:07.836Z,9.95
2023-01-12T05:25:36.063Z,6.70
2023-01-12T05:28:05.903Z,7.83
2023-01-12T05:30:34.220Z,5.50
2023-01-12T05:33:02.467Z,6.33
2023-01-12T05:35:30.682Z,8.20
2023-01-12T05:37:59.114Z,8.47
2023-01-12T05:40:27.307Z,7.78
2023-01-12T05:43:12.719Z,6.40
2023-01-12T05:45:42.341Z,8.43
2023-01-12T05:48:11.347Z,8.40
2023-01-12T05:50:39.545Z,7.00
2023-01-12T05:53:10.504Z,6.87
2023-01-12T05:55:39.254Z,10.33
2023-01-12T05:58:07.485Z,6.20
2023-01-12T06:00:35.831Z,8.27
2023-01-12T06:03:05.479Z,7.20
2023-01-12T06:05:35.965Z,10.50
2023-01-12T06:08:04.227Z,8.47
2023-01-12T06:10:34.435Z,6.97
2023-01-12T06:13:19.923Z,9.47
2023-01-12T06:15:48.106Z,7.70
2023-01-12T06:18:18.824Z,7.93
2023-01-12T06:20:47.009Z,11.70
2023-01-12T06:23:15.217Z,9.13
2023-01-12T06:25:43.460Z,10.10
2023-01-12T06:28:13.895Z,8.77
2023-01-12T06:30:44.467Z,9.10
2023-01-12T06:33:13.414Z,7.10
2023-01-12T06:35:50.003Z,9.00
2023-01-12T06:38:19.494Z,6.57
2023-01-12T06:40:48.037Z,9.33
2023-01-12T06:43:16.589Z,9.13
2023-01-12T06:45:45.016Z,7.93
2023-01-12T06:48:15.604Z,9.40
2023-01-12T06:50:45.267Z,8.70
2023-01-12T06:53:13.453Z,12.40
2023-01-12T06:55:41.641Z,6.70
2023-01-12T06:58:09.820Z,9.10
2023-01-12T07:00:38.163Z,10.07
2023-01-12T07:03:06.404Z,8.60
2023-01-12T07:05:34.756Z,9.10
2023-01-12T07:08:06.930Z,9.90
2023-01-12T07:10:35.140Z,9.00
2023-01-12T07:13:03.445Z,6.53
2023-01-12T07:15:31.748Z,7.80
2023-01-12T07:18:00.121Z,6.80
2023-01-12T07:20:29.387Z,7.10
2023-01-12T07:22:57.793Z,8.00
2023-01-12T07:25:29.835Z,7.57
2023-01-12T07:27:59.460Z,9.30
2023-01-12T07:30:28.530Z,7.70
2023-01-12T07:32:56.754Z,7.30
2023-01-12T07:35:25.294Z,7.80
2023-01-12T07:37:55.924Z,12.00
2023-01-12T07:40:24.125Z,6.47
2023-01-12T07:43:00.923Z,10.13
2023-01-12T07:45:30.257Z,10.80
2023-01-12T07:48:00.934Z,9.23
2023-01-12T07:50:30.276Z,10.90
2023-01-12T07:53:02.390Z,10.90
2023-01-12T07:55:30.981Z,11.77
2023-01-12T07:58:03.191Z,8.73
2023-01-12T08:00:33.786Z,9.37
2023-01-12T08:03:05.888Z,8.40
2023-01-12T08:05:35.260Z,14.00
2023-01-12T08:08:03.967Z,9.17
2023-01-12T08:10:32.688Z,11.57
2023-01-12T08:13:02.342Z,5.97
2023-01-12T08:15:36.756Z,8.93
2023-01-12T08:18:11.339Z,8.73
2023-01-12T08:20:39.788Z,8.07
2023-01-12T08:23:12.700Z,6.00
2023-01-12T08:25:45.685Z,7.63
2023-01-12T08:28:19.844Z,8.90
2023-01-12T08:30:49.919Z,8.13
2023-01-12T08:33:21.519Z,10.90
2023-01-12T08:35:50.197Z,7.93
2023-01-12T08:38:19.280Z,8.90
2023-01-12T08:41:04.898Z,9.07
2023-01-12T08:43:51.897Z,8.60
2023-01-12T08:46:20.124Z,7.77
2023-01-12T08:48:48.324Z,6.73
2023-01-12T08:51:16.616Z,10.73
2023-01-12T08:53:44.864Z,9.10
2023-01-12T08:56:15.519Z,8.70
2023-01-12T08:58:45.176Z,7.20
2023-01-12T09:01:16.787Z,9.00
2023-01-12T09:03:45.820Z,6.87
2023-01-12T09:06:15.559Z,10.40
2023-01-12T09:08:44.247Z,10.17
2023-01-12T09:11:13.825Z,11.63
2023-01-12T09:13:42.259Z,10.90
2023-01-12T09:16:13.936Z,8.93
2023-01-12T09:18:43.165Z,8.40
2023-01-12T09:21:13.514Z,11.37
2023-01-12T09:23:42.589Z,9.43
2023-01-12T09:26:12.231Z,10.10
2023-01-12T09:28:40.756Z,10.07
2023-01-12T09:31:12.059Z,8.80
2023-01-12T09:33:41.834Z,9.47
2023-01-12T09:36:12.094Z,9.77
2023-01-12T09:38:41.628Z,8.40
2023-01-12T09:41:40.830Z,7.50
2023-01-12T09:44:36.033Z,7.37
2023-01-12T09:47:10.506Z,10.23
2023-01-12T09:49:44.915Z,8.67
2023-01-12T09:52:17.397Z,9.30
2023-01-12T09:54:50.566Z,8.93
2023-01-12T09:57:49.779Z,8.80
2023-01-12T10:00:21.215Z,7.90
2023-01-12T10:02:55.085Z,6.13
2023-01-12T10:05:39.641Z,9.97
2023-01-12T10:08:17.211Z,9.90
2023-01-12T10:10:58.627Z,8.40
2023-01-12T10:13:35.148Z,8.00
2023-01-12T10:16:13.201Z,9.73
2023-01-12T10:18:48.149Z,12.23
2023-01-12T10:21:16.529Z,6.70
2023-01-12T10:23:45.539Z,9.27
2023-01-12T10:26:23.278Z,7.90
2023-01-12T10:28:54.667Z,9.13
2023-01-12T10:31:25.670Z,7.47
2023-01-12T10:34:07.034Z,9.27
2023-01-12T10:36:36.548Z,6.00
2023-01-12T10:39:06.256Z,6.63
2023-01-12T10:41:35.630Z,6.40
2023-01-12T10:44:15.511Z,8.73
2023-01-12T10:46:43.968Z,6.27
2023-01-12T10:49:21.729Z,6.70
2023-01-12T10:51:55.866Z,6.53
2023-01-12T10:54:26.499Z,6.67
2023-01-12T10:56:58.615Z,6.70
2023-01-12T10:59:29.402Z,7.20
2023-01-12T11:02:23.221Z,7.00
2023-01-12T11:04:54.402Z,5.73
2023-01-12T11:07:25.843Z,6.80
2023-01-12T11:09:55.295Z,7.17
2023-01-12T11:12:28.127Z,7.50
2023-01-12T11:15:03.583Z,6.33
2023-01-12T11:17:50.097Z,6.20
2023-01-12T11:20:28.064Z,6.70
2023-01-12T11:23:00.433Z,7.97
2023-01-12T11:25:34.081Z,6.23
2023-01-12T11:28:07.890Z,7.63
2023-01-12T11:30:41.721Z,8.37
2023-01-12T11:33:14.426Z,7.20
2023-01-12T11:35:50.113Z,5.50
2023-01-12T11:38:22.138Z,7.47
2023-01-12T11:40:50.367Z,8.37
2023-01-12T11:43:45.853Z,6.77
2023-01-12T11:46:20.211Z,7.67
2023-01-12T11:48:56.365Z,9.90
2023-01-12T11:51:26.036Z,8.10
2023-01-12T11:53:55.160Z,7.40
2023-01-12T11:57:03.736Z,7.83
2023-01-12T11:59:42.673Z,8.27
2023-01-12T12:02:22.724Z,7.33
2023-01-12T12:05:03.646Z,8.90
2023-01-12T12:07:49.623Z,8.00
2023-01-12T12:10:24.018Z,8.10
2023-01-12T12:13:14.015Z,8.10
2023-01-12T12:15:50.262Z,6.13
2023-01-12T12:18:34.565Z,5.80
2023-01-12T12:21:15.433Z,7.83
2023-01-12T12:23:56.220Z,9.10
2023-01-12T12:26:28.162Z,6.87
2023-01-12T12:29:09.944Z,9.23
2023-01-12T12:31:50.680Z,6.20
2023-01-12T12:34:51.711Z,10.93
2023-01-12T12:37:25.727Z,6.67
2023-01-12T12:40:04.688Z,8.10
2023-01-12T12:43:02.459Z,6.40
2023-01-12T12:45:40.023Z,6.23
2023-01-12T12:48:16.318Z,9.70
2023-01-12T12:50:52.373Z,4.37
2023-01-12T12:53:27.667Z,7.57
2023-01-12T12:56:00.728Z,5.10
2023-01-12T12:58:44.506Z,7.00
2023-01-12T13:01:43.715Z,6.80
2023-01-12T13:04:14.529Z,5.53
2023-01-12T13:06:46.840Z,6.90
2023-01-12T13:09:35.432Z,5.53
2023-01-12T13:12:37.191Z,7.10
2023-01-12T13:15:29.420Z,6.93
2023-01-12T13:17:57.877Z,8.40
2023-01-12T13:20:53.409Z,3.60
2023-01-12T13:23:44.708Z,8.40
2023-01-12T13:26:42.199Z,5.53
2023-01-12T13:29:40.609Z,4.50
2023-01-12T13:32:41.561Z,7.40
2023-01-12T13:35:44.554Z,6.07
2023-01-12T13:38:17.033Z,7.60
2023-01-12T13:40:55.581Z,6.97
2023-01-12T13:43:29.189Z,7.23
2023-01-12T13:46:03.357Z,5.93
2023-01-12T13:48:34.713Z,6.47
2023-01-12T13:51:08.559Z,6.73
2023-01-12T13:53:36.831Z,4.80
2023-01-12T13:56:07.471Z,5.00
2023-01-12T13:58:41.031Z,4.40
2023-01-12T14:01:19.656Z,4.37
2023-01-12T14:04:20.272Z,5.10
2023-01-12T14:06:57.970Z,5.70
2023-01-12T14:09:36.650Z,5.80
2023-01-12T14:12:41.811Z,6.40
2023-01-12T14:15:41.437Z,5.80
2023-01-12T14:18:18.424Z,6.90
2023-01-12T14:20:48.353Z,6.20
2023-01-12T14:23:20.823Z,6.07
2023-01-12T14:26:05.553Z,5.03
2023-01-12T14:28:34.128Z,6.23
2023-01-12T14:31:02.693Z,6.70
2023-01-12T14:33:34.841Z,4.90
2023-01-12T14:36:06.338Z,6.93
2023-01-12T14:38:35.661Z,5.73
2023-01-12T14:41:28.871Z,5.17
2023-01-12T14:44:29.169Z,5.53
2023-01-12T14:46:57.639Z,4.13
2023-01-12T14:49:30.995Z,4.87
2023-01-12T14:52:00.628Z,6.10
2023-01-12T14:54:31.476Z,4.90
2023-01-12T14:57:02.093Z,5.17
2023-01-12T14:59:32.851Z,5.90
2023-01-12T15:02:29.727Z,5.43
2023-01-12T15:05:01.869Z,5.77
2023-01-12T15:07:34.619Z,6.17
2023-01-12T15:10:31.826Z,7.63
2023-01-12T15:13:13.962Z,5.97
2023-01-12T15:15:59.961Z,5.33
2023-01-12T15:18:45.615Z,6.00
2023-01-12T15:21:32.882Z,6.43
2023-01-12T15:24:21.011Z,5.77
2023-01-12T15:26:58.780Z,5.10
2023-01-12T15:29:33.773Z,6.00
2023-01-12T15:32:02.513Z,4.57
2023-01-12T15:34:30.799Z,5.80
2023-01-12T15:37:00.538Z,5.60
2023-01-12T15:39:29.279Z,7.17
2023-01-12T15:42:15.129Z,6.83
2023-01-12T15:44:47.604Z,6.20
2023-01-12T15:47:17.252Z,4.97
2023-01-12T15:49:48.707Z,5.13
2023-01-12T15:52:21.634Z,5.47
2023-01-12T15:54:50.164Z,6.67
2023-01-12T15:57:19.567Z,8.33
2023-01-12T15:59:47.771Z,8.27
2023-01-12T16:02:30.807Z,5.60
2023-01-12T16:05:01.472Z,8.10
2023-01-12T16:07:31.218Z,8.60
2023-01-12T16:09:59.479Z,7.97
2023-01-12T16:12:27.880Z,8.33
2023-01-12T16:14:58.599Z,8.70
2023-01-12T16:17:27.754Z,7.47
2023-01-12T16:19:55.938Z,6.43
2023-01-12T16:22:26.477Z,7.43
2023-01-12T16:24:57.344Z,9.93
2023-01-12T16:27:27.823Z,9.00
2023-01-12T16:29:56.175Z,6.47
2023-01-12T16:32:25.750Z,8.27
2023-01-12T16:34:54.321Z,9.80
2023-01-12T16:37:26.750Z,8.43
2023-01-12T16:39:56.654Z,9.23
2023-01-12T16:42:24.864Z,9.17
2023-01-12T16:44:53.102Z,8.10
2023-01-12T16:47:25.500Z,9.87
2023-01-12T16:50:00.937Z,9.13
2023-01-12T16:52:29.455Z,8.40
2023-01-12T16:54:59.042Z,10.70
2023-01-12T16:57:27.407Z,12.63
2023-01-12T16:59:57.954Z,9.17
2023-01-12T17:02:26.322Z,10.77
2023-01-12T17:04:55.797Z,8.87
2023-01-12T17:07:29.613Z,9.33
2023-01-12T17:10:00.899Z,9.10
2023-01-12T17:12:29.397Z,8.87
2023-01-12T17:15:00.178Z,11.83
2023-01-12T17:17:29.232Z,8.17
2023-01-12T17:19:57.640Z,12.33
2023-01-12T17:22:26.193Z,10.27
2023-01-12T17:24:54.544Z,14.80
2023-01-12T17:27:24.568Z,13.63
2023-01-12T17:29:52.793Z,13.63
2023-01-12T17:32:21.117Z,9.00
2023-01-12T17:34:49.671Z,13.70
2023-01-12T17:37:18.034Z,12.67
2023-01-12T17:39:47.407Z,11.80
2023-01-12T17:42:35.269Z,11.37
2023-01-12T17:45:05.775Z,10.52
2023-01-12T17:47:34.060Z,9.97
2023-01-12T17:50:02.427Z,14.32
2023-01-12T17:52:30.713Z,12.17
2023-01-12T17:54:58.957Z,11.32
2023-01-12T17:57:27.284Z,15.77
2023-01-12T17:59:55.501Z,12.15
2023-01-12T18:02:25.248Z,15.13
2023-01-12T18:04:53.563Z,13.40
2023-01-12T18:07:21.814Z,14.67
2023-01-12T18:09:50.039Z,11.67
2023-01-12T18:12:21.443Z,12.93
2023-01-12T18:14:52.023Z,11.20
2023-01-12T18:17:20.402Z,10.10
2023-01-12T18:19:53.437Z,11.75
2023-01-12T18:22:21.691Z,10.03
2023-01-12T18:24:49.879Z,13.10
2023-01-12T18:27:18.115Z,12.32
2023-01-12T18:29:46.313Z,11.57
2023-01-12T18:32:14.651Z,12.57
2023-01-12T18:34:43.328Z,15.30
2023-01-12T18:37:13.861Z,9.20
2023-01-12T18:39:44.085Z,11.13
2023-01-12T18:42:40.757Z,12.95
2023-01-12T18:45:09.916Z,10.85
2023-01-12T18:47:55.316Z,11.68
2023-01-12T18:50:40.636Z,9.15
2023-01-12T18:53:31.428Z,9.95
2023-01-12T18:56:04.087Z,11.43
2023-01-12T18:58:35.476Z,9.52
2023-01-12T19:01:05.992Z,12.75
2023-01-12T19:03:35.153Z,11.15
2023-01-12T19:06:28.041Z,9.63
2023-01-12T19:09:18.131Z,11.23
2023-01-12T19:11:46.415Z,12.32
2023-01-12T19:14:34.580Z,11.50
2023-01-12T19:17:20.143Z,9.85
2023-01-12T19:19:48.392Z,8.18
2023-01-12T19:22:36.449Z,9.55
2023-01-12T19:25:24.273Z,8.80
2023-01-12T19:28:09.804Z,6.97
2023-01-12T19:30:40.553Z,10.75
2023-01-12T19:33:09.351Z,7.78
2023-01-12T19:35:38.663Z,9.00
2023-01-12T19:38:08.010Z,10.00
2023-01-12T19:40:45.335Z,8.80
2023-01-12T19:43:14.525Z,9.20
2023-01-12T19:45:43.911Z,9.03
2023-01-12T19:48:13.524Z,9.33
2023-01-12T19:50:44.123Z,7.67
2023-01-12T19:53:14.811Z,8.38
2023-01-12T19:55:44.603Z,10.40
2023-01-12T19:58:13.305Z,7.77
2023-01-12T20:00:45.180Z,13.57
2023-01-12T20:03:14.718Z,9.27
2023-01-12T20:05:43.864Z,9.10
2023-01-12T20:08:12.537Z,7.90
2023-01-12T20:10:43.581Z,10.10
2023-01-12T20:13:16.294Z,11.57
2023-01-12T20:15:44.893Z,7.30
2023-01-12T20:18:13.832Z,10.70
2023-01-12T20:20:42.325Z,9.00
2023-01-12T20:23:11.770Z,6.13
2023-01-12T20:25:40.655Z,9.80
2023-01-12T20:28:09.327Z,7.73
2023-01-12T20:30:42.721Z,8.30
2023-01-12T20:33:11.930Z,7.23
2023-01-12T20:35:45.019Z,9.27
2023-01-12T20:38:16.302Z,8.77
2023-01-12T20:40:45.292Z,10.80
2023-01-12T20:43:14.075Z,8.00
2023-01-12T20:45:44.316Z,8.97
2023-01-12T20:48:14.915Z,10.50
2023-01-12T20:50:44.325Z,8.50
2023-01-12T20:53:12.829Z,8.33
2023-01-12T20:55:45.297Z,10.17
2023-01-12T20:58:13.613Z,9.87
2023-01-12T21:00:43.377Z,7.80
2023-01-12T21:03:14.090Z,8.83
2023-01-12T21:05:43.372Z,8.43
2023-01-12T21:08:11.758Z,9.10
2023-01-12T21:10:41.142Z,10.63
2023-01-12T21:13:09.635Z,8.50
2023-01-12T21:15:37.827Z,6.50
2023-01-12T21:18:07.402Z,7.90
2023-01-12T21:20:36.257Z,5.43
2023-01-12T21:23:04.459Z,9.10
2023-01-12T21:25:32.739Z,7.47
2023-01-12T21:28:00.973Z,6.70
2023-01-12T21:30:29.141Z,7.87
2023-01-12T21:32:57.340Z,7.30
2023-01-12T21:35:26.938Z,8.10
2023-01-12T21:37:55.199Z,7.87
2023-01-12T21:40:23.433Z,4.70
2023-01-12T21:43:10.063Z,5.00
2023-01-12T21:45:39.345Z,7.43
2023-01-12T21:48:08.898Z,5.63
2023-01-12T21:50:39.318Z,8.87
2023-01-12T21:53:08.145Z,6.87
2023-01-12T21:55:36.800Z,7.40
2023-01-12T21:58:05.008Z,7.27
2023-01-12T22:00:33.230Z,6.43
2023-01-12T22:03:01.467Z,6.17
2023-01-12T22:05:29.700Z,6.37
2023-01-12T22:07:59.276Z,4.97
2023-01-12T22:10:31.460Z,5.57
2023-01-12T22:13:02.886Z,7.47
2023-01-12T22:15:31.478Z,5.47
2023-01-12T22:18:00.122Z,6.20
2023-01-12T22:20:28.800Z,5.67
2023-01-12T22:22:58.622Z,6.10
2023-01-12T22:25:27.780Z,3.80
2023-01-12T22:27:58.003Z,6.20
2023-01-12T22:30:26.297Z,7.00
2023-01-12T22:32:57.578Z,9.70
2023-01-12T22:35:26.446Z,6.57
2023-01-12T22:37:55.858Z,8.00
2023-01-12T22:40:25.450Z,6.47
2023-01-12T22:43:10.924Z,6.73
2023-01-12T22:45:40.551Z,6.17
2023-01-12T22:48:08.755Z,7.53
2023-01-12T22:50:37.456Z,6.20
2023-01-12T22:53:05.743Z,8.43
2023-01-12T22:55:35.317Z,6.77
2023-01-12T22:58:03.498Z,6.43
2023-01-12T23:00:31.729Z,4.80
2023-01-12T23:03:03.287Z,6.50
2023-01-12T23:05:35.820Z,7.70
2023-01-12T23:08:07.875Z,7.40
2023-01-12T23:10:37.529Z,9.13
2023-01-12T23:13:25.570Z,8.43
2023-01-12T23:15:56.776Z,8.47
2023-01-12T23:18:28.873Z,8.40
2023-01-12T23:21:02.544Z,7.10
2023-01-12T23:23:31.712Z,6.10
2023-01-12T23:26:05.683Z,5.10
2023-01-12T23:28:36.789Z,8.17
2023-01-12T23:31:06.160Z,7.63
2023-01-12T23:33:38.180Z,5.53
2023-01-12T23:36:08.144Z,7.77
2023-01-12T23:38:36.735Z,6.30
2023-01-12T23:41:13.529Z,7.67
2023-01-12T23:43:44.553Z,8.17
2023-01-12T23:46:13.465Z,5.77
2023-01-12T23:48:41.983Z,5.07
2023-01-12T23:51:10.668Z,4.67
2023-01-12T23:53:39.108Z,5.60
2023-01-12T23:56:09.677Z,5.30
2023-01-12T23:58:39.374Z,6.70
